MAPA DE AEROPUERTO

INFORMACIÓN METAR y TAF

METAR FOR LEZL
ADDS - METARS form results

(1401 UTC 23 January 2020)
Data provider http://aviationweather.gov/metar/data/
 
METAR text: LEZL 231330Z 30007KT 9999 -RA SCT022 BKN035 11/10 Q1016 RERA NOSIG
Conditions at: LEZL (SEVILLA (CIV/MIL, ES) observed 1330 UTC 23 January 2020
Temperature: 11.0°C (52°F)
Dewpoint: 10.0°C (50°F) [RH = 94%]
Pressure (altimeter): 30.00 inches Hg (1016.0 mb)
Winds: from the WNW (300 degrees) at 8 MPH (7 knots; 3.6 m/s)
Visibility: 6 or more miles (10+ km)
Ceiling: 3500 feet AGL
Clouds: scattered clouds at 2200 feet AGL
broken clouds at 3500 feet AGL
Weather: -RA  (light rain)

METAR text: LEZL 231311Z 29010KT 9999 RA FEW008 SCT020 BKN035 11/10 Q1016 NOSIG
Conditions at: LEZL (SEVILLA (CIV/MIL, ES) observed 1311 UTC 23 January 2020
Temperature: 11.0°C (52°F)
Dewpoint: 10.0°C (50°F) [RH = 94%]
Pressure (altimeter): 30.00 inches Hg (1016.0 mb)
Winds: from the WNW (290 degrees) at 12 MPH (10 knots; 5.1 m/s)
Visibility: 6 or more miles (10+ km)
Ceiling: 3500 feet AGL
Clouds: few clouds at 800 feet AGL
scattered clouds at 2000 feet AGL
broken clouds at 3500 feet AGL
Weather: RA  (moderate rain)

Forecast for: LEZL (SEVILLA (CIV/MIL, ES)
Text: TAF LEZL 230800Z 2309/2409 15008KT 9999 SCT030 BKN050 TX13/2315Z TN10/2407Z
Forecast period: 0900 UTC 23 January 2020 to 0900 UTC 24 January 2020
Forecast type: FROM: standard forecast or significant change
Winds: from the SSE (150 degrees) at 9 MPH (8 knots; 4.1 m/s)
Visibility: 6 or more miles 10+ km)
Ceiling: 5000 feet AGL
Clouds: scattered clouds at 3000 feet AGL
broken clouds at 5000 feet AGL
Weather: no significant weather forecast for this period
Text: PROB40
Forecast period: 0900 UTC 23 January 2020 to 0900 UTC 24 January 2020
Forecast type: TEMPORARY: The following changes expected for less than half the time period
Visibility: 2.49 miles (4.01 km)
Ceiling: 3500 feet AGL
Clouds: scattered clouds at 2500 feet AGL
broken clouds at 3500 feet AGL
Weather: SHRA  (rain showers)
Text: TEMPO 2309/2409 4000 SHRA SCT025TCU BKN035
Forecast period: 0900 UTC 23 January 2020 to 0900 UTC 24 January 2020
Forecast type: TEMPORARY: The following changes expected for less than half the time period
Visibility: 1.86 miles (2.99 km)
Ceiling: 2500 feet AGL
Clouds: scattered clouds at 2000 feet AGL
broken clouds at 2500 feet AGL
Weather: TSRA  (rain associated with thunderstorm(s))